createdAt,value
2019-04-14T00:00:34.347Z,30.48
2019-04-14T00:03:21.599Z,28.70
2019-04-14T00:05:50.317Z,27.77
2019-04-14T00:08:17.746Z,30.75
2019-04-14T00:10:44.636Z,32.90
2019-04-14T00:13:11.386Z,33.00
2019-04-14T00:15:43.519Z,32.42
2019-04-14T00:18:07.443Z,33.60
2019-04-14T00:20:34.078Z,32.35
2019-04-14T00:23:00.527Z,28.23
2019-04-14T00:25:26.986Z,29.37
2019-04-14T00:27:54.364Z,30.05
2019-04-14T00:30:23.056Z,27.67
2019-04-14T00:32:52.982Z,27.27
2019-04-14T00:35:40.570Z,29.95
2019-04-14T00:38:15.179Z,28.32
2019-04-14T00:40:47.552Z,29.30
2019-04-14T00:43:31.254Z,27.35
2019-04-14T00:46:01.362Z,39.38
2019-04-14T00:48:29.897Z,30.97
2019-04-14T00:50:58.119Z,30.50
2019-04-14T00:53:25.375Z,29.67
2019-04-14T00:55:53.219Z,29.75
2019-04-14T00:58:19.858Z,29.32
2019-04-14T01:00:47.490Z,29.07
2019-04-14T01:03:14.067Z,26.00
2019-04-14T01:05:41.531Z,25.57
2019-04-14T01:08:08.090Z,28.00
2019-04-14T01:10:34.563Z,25.97
2019-04-14T01:13:01.217Z,31.35
2019-04-14T01:15:28.922Z,31.35
2019-04-14T01:17:55.429Z,29.05
2019-04-14T01:20:23.152Z,29.63
2019-04-14T01:22:50.895Z,33.60
2019-04-14T01:25:17.704Z,33.92
2019-04-14T01:27:45.041Z,30.55
2019-04-14T01:30:11.884Z,28.20
2019-04-14T01:32:39.424Z,24.90
2019-04-14T01:35:07.466Z,26.27
2019-04-14T01:37:35.480Z,29.32
2019-04-14T01:40:03.180Z,27.05
2019-04-14T01:42:30.965Z,27.75
2019-04-14T01:44:57.461Z,27.37
2019-04-14T01:47:24.885Z,28.20
2019-04-14T01:49:51.583Z,29.67
2019-04-14T01:52:25.723Z,27.98
2019-04-14T01:57:39.674Z,27.35
2019-04-14T02:00:14.623Z,23.45
2019-04-14T02:02:42.153Z,30.70
2019-04-14T02:05:08.855Z,32.70
2019-04-14T02:07:36.164Z,30.65
2019-04-14T02:10:04.662Z,26.87
2019-04-14T02:12:32.290Z,28.83
2019-04-14T02:14:58.894Z,28.52
2019-04-14T02:17:26.363Z,27.87
2019-04-14T02:19:54.637Z,26.77
2019-04-14T02:22:22.308Z,28.87
2019-04-14T02:24:50.238Z,28.32
2019-04-14T02:27:16.872Z,32.38
2019-04-14T02:29:43.314Z,29.20
2019-04-14T02:32:42.499Z,29.57
2019-04-14T02:35:02.858Z,30.35
2019-04-14T02:37:38.658Z,30.02
2019-04-14T02:40:01.565Z,28.50
2019-04-14T02:44:59.866Z,28.42
2019-04-14T02:49:56.132Z,32.25
2019-04-14T02:52:28.194Z,29.70
2019-04-14T02:59:49.574Z,28.02
2019-04-14T03:04:51.964Z,31.30
2019-04-14T03:07:23.261Z,31.87
2019-04-14T03:09:50.238Z,29.98
2019-04-14T03:12:19.124Z,32.15
2019-04-14T03:22:34.626Z,32.58
2019-04-14T03:25:00.611Z,31.05
2019-04-14T03:30:32.932Z,30.20
2019-04-14T03:35:47.824Z,32.03
2019-04-14T03:37:45.241Z,31.42
2019-04-14T03:40:05.136Z,31.73
2019-04-14T03:45:11.164Z,31.68
2019-04-14T03:47:31.270Z,31.97
2019-04-14T03:50:00.925Z,30.77
2019-04-14T03:52:33.210Z,32.67
2019-04-14T03:54:50.080Z,29.57
2019-04-14T03:56:58.127Z,31.33
2019-04-14T03:59:25.960Z,33.53
2019-04-14T04:01:52.828Z,31.02
2019-04-14T04:04:20.456Z,32.95
2019-04-14T04:06:48.464Z,32.93
2019-04-14T04:09:15.302Z,31.45
2019-04-14T04:11:41.852Z,30.43
2019-04-14T04:14:09.536Z,31.33
2019-04-14T04:16:50.795Z,32.20
2019-04-14T04:19:29.512Z,35.17
2019-04-14T04:22:15.066Z,33.88
2019-04-14T04:24:50.025Z,33.55
2019-04-14T04:27:35.240Z,33.90
2019-04-14T04:30:03.799Z,35.55
2019-04-14T04:32:49.351Z,37.42
2019-04-14T04:35:17.952Z,32.42
2019-04-14T04:38:03.128Z,35.03
2019-04-14T04:40:31.396Z,34.55
2019-04-14T04:42:58.984Z,33.80
2019-04-14T04:45:25.719Z,32.78
2019-04-14T04:47:53.397Z,32.15
2019-04-14T04:50:19.964Z,29.90
2019-04-14T04:52:47.537Z,32.53
2019-04-14T04:55:14.086Z,31.30
2019-04-14T04:57:41.405Z,32.30
2019-04-14T05:00:09.246Z,34.13
2019-04-14T05:02:35.869Z,31.57
2019-04-14T05:05:05.581Z,32.05
2019-04-14T05:07:32.243Z,30.77
2019-04-14T05:10:10.898Z,29.50
2019-04-14T05:12:43.423Z,31.68
2019-04-14T05:15:24.777Z,31.07
2019-04-14T05:17:51.746Z,30.15
2019-04-14T05:20:18.401Z,29.67
2019-04-14T05:22:46.078Z,30.90
2019-04-14T05:25:12.600Z,31.90
2019-04-14T05:27:39.084Z,33.38
2019-04-14T05:30:06.816Z,31.65
2019-04-14T05:32:34.659Z,31.60
2019-04-14T05:35:01.488Z,33.73
2019-04-14T05:37:29.235Z,30.12
2019-04-14T05:39:56.879Z,29.50
2019-04-14T05:42:25.632Z,32.85
2019-04-14T05:44:51.667Z,28.92
2019-04-14T05:47:18.115Z,28.87
2019-04-14T05:49:48.260Z,32.73
2019-04-14T05:52:14.072Z,30.57
2019-04-14T05:54:40.700Z,28.50
2019-04-14T05:57:07.249Z,28.40
2019-04-14T05:59:33.708Z,28.57
2019-04-14T06:02:00.214Z,30.52
2019-04-14T06:04:26.677Z,30.90
2019-04-14T06:06:53.231Z,33.15
2019-04-14T06:09:19.674Z,33.70
2019-04-14T06:11:46.135Z,31.07
2019-04-14T06:14:12.597Z,29.12
2019-04-14T06:16:39.065Z,29.45
2019-04-14T06:19:05.544Z,29.52
2019-04-14T06:21:32.003Z,32.25
2019-04-14T06:23:58.450Z,28.67
2019-04-14T06:26:25.018Z,28.62
2019-04-14T06:28:51.450Z,28.67
2019-04-14T06:31:36.326Z,28.60
2019-04-14T06:34:04.794Z,28.40
2019-04-14T06:36:46.541Z,27.22
2019-04-14T06:39:18.007Z,28.75
2019-04-14T06:41:44.650Z,29.07
2019-04-14T06:44:11.217Z,31.57
2019-04-14T06:46:37.742Z,30.27
2019-04-14T06:49:04.341Z,29.80
2019-04-14T06:51:30.814Z,28.32
2019-04-14T06:53:57.288Z,30.68
2019-04-14T06:56:23.721Z,31.48
2019-04-14T06:58:50.181Z,27.73
2019-04-14T07:01:16.636Z,28.40
2019-04-14T07:03:43.287Z,27.27
2019-04-14T07:06:09.758Z,27.48
2019-04-14T07:08:36.228Z,29.02
2019-04-14T07:11:02.855Z,27.80
2019-04-14T07:13:29.303Z,28.10
2019-04-14T07:15:55.777Z,27.65
2019-04-14T07:18:22.250Z,28.55
2019-04-14T07:20:48.712Z,28.77
2019-04-14T07:23:15.169Z,28.65
2019-04-14T07:25:41.594Z,29.98
2019-04-14T07:28:08.057Z,29.02
2019-04-14T07:30:39.877Z,28.42
2019-04-14T07:33:12.295Z,30.60
2019-04-14T07:36:01.974Z,29.00
2019-04-14T07:38:39.586Z,30.37
2019-04-14T07:41:17.080Z,27.80
2019-04-14T07:43:57.702Z,32.38
2019-04-14T07:46:26.175Z,33.05
2019-04-14T07:49:12.824Z,30.70
2019-04-14T07:51:57.937Z,28.77
2019-04-14T07:54:35.530Z,28.50
2019-04-14T07:57:09.895Z,29.10
2019-04-14T07:59:50.599Z,28.40
2019-04-14T08:02:18.988Z,31.30
2019-04-14T08:04:50.319Z,28.55
2019-04-14T08:07:16.809Z,29.32
2019-04-14T08:09:43.265Z,30.57
2019-04-14T08:12:09.810Z,31.82
2019-04-14T08:14:36.351Z,28.57
2019-04-14T08:17:02.937Z,32.15
2019-04-14T08:19:29.370Z,39.67
2019-04-14T08:21:55.837Z,36.25
2019-04-14T08:24:22.308Z,29.82
2019-04-14T08:26:48.735Z,28.27
2019-04-14T08:29:16.503Z,31.75
2019-04-14T08:31:43.065Z,27.60
2019-04-14T08:34:09.511Z,27.98
2019-04-14T08:36:35.990Z,30.57
2019-04-14T08:39:04.893Z,30.20
2019-04-14T08:41:33.827Z,30.45
2019-04-14T08:44:10.955Z,30.43
2019-04-14T08:46:57.410Z,27.35
2019-04-14T08:49:25.865Z,27.90
2019-04-14T08:52:03.117Z,25.02
2019-04-14T08:54:32.687Z,25.75
2019-04-14T08:57:01.042Z,26.15
2019-04-14T08:59:38.389Z,27.87
2019-04-14T09:02:06.974Z,27.20
2019-04-14T09:04:51.657Z,26.17
2019-04-14T09:07:29.259Z,25.95
2019-04-14T09:10:00.713Z,25.32
2019-04-14T09:12:41.158Z,23.02
2019-04-14T09:15:08.133Z,21.93
2019-04-14T09:17:34.581Z,21.70
2019-04-14T09:20:01.262Z,22.85
2019-04-14T09:22:27.837Z,22.42
2019-04-14T09:24:54.294Z,21.70
2019-04-14T09:27:20.811Z,20.15
2019-04-14T09:29:47.358Z,20.45
2019-04-14T09:32:14.352Z,20.40
2019-04-14T09:34:40.941Z,19.60
2019-04-14T09:37:07.437Z,19.23
2019-04-14T09:39:33.865Z,19.35
2019-04-14T09:42:00.862Z,22.60
2019-04-14T09:44:27.334Z,19.02
2019-04-14T09:46:53.831Z,23.27
2019-04-14T09:49:20.462Z,19.77
2019-04-14T09:51:47.064Z,16.07
2019-04-14T09:54:13.506Z,17.23
2019-04-14T09:56:40.076Z,16.15
2019-04-14T09:59:06.543Z,18.00
2019-04-14T10:01:33.036Z,17.77
2019-04-14T10:03:59.648Z,21.35
2019-04-14T10:06:26.132Z,16.85
2019-04-14T10:08:52.626Z,16.87
2019-04-14T10:11:19.101Z,19.65
2019-04-14T10:13:45.612Z,17.35
2019-04-14T10:16:12.182Z,16.23
2019-04-14T10:18:38.781Z,16.40
2019-04-14T10:21:16.887Z,16.67
2019-04-14T10:23:33.560Z,16.60
2019-04-14T10:26:00.142Z,17.67
2019-04-14T10:28:26.676Z,15.58
2019-04-14T10:30:53.130Z,15.38
2019-04-14T10:33:19.635Z,15.60
2019-04-14T10:35:46.238Z,16.97
2019-04-14T10:38:12.734Z,15.70
2019-04-14T10:40:39.361Z,13.70
2019-04-14T10:43:06.113Z,15.63
2019-04-14T10:45:34.100Z,14.03
2019-04-14T10:48:00.667Z,13.78
2019-04-14T10:50:31.090Z,13.85
2019-04-14T10:52:55.543Z,15.70
2019-04-14T10:55:22.445Z,16.60
2019-04-14T10:57:49.248Z,17.37
2019-04-14T11:00:18.395Z,13.95
2019-04-14T11:02:44.994Z,14.45
2019-04-14T11:05:11.592Z,14.87
2019-04-14T11:07:38.273Z,14.53
2019-04-14T11:10:07.512Z,15.35
2019-04-14T11:12:34.307Z,13.45
2019-04-14T11:15:00.726Z,12.90
2019-04-14T11:17:27.261Z,13.45
2019-04-14T11:19:53.711Z,13.95
2019-04-14T11:22:20.196Z,13.45
2019-04-14T11:24:46.679Z,12.47
2019-04-14T11:27:13.159Z,13.40
2019-04-14T11:29:39.630Z,13.22
2019-04-14T11:32:26.100Z,14.00
2019-04-14T11:34:54.454Z,13.05
2019-04-14T11:37:39.884Z,13.60
2019-04-14T11:40:08.569Z,12.03
2019-04-14T11:42:35.149Z,12.50
2019-04-14T11:45:02.344Z,11.30
2019-04-14T11:47:29.107Z,11.45
2019-04-14T11:49:56.346Z,11.60
2019-04-14T11:52:23.052Z,11.33
2019-04-14T11:54:49.603Z,11.10
2019-04-14T11:57:18.392Z,11.00
2019-04-14T11:59:46.897Z,10.13
2019-04-14T12:02:15.517Z,10.25
2019-04-14T12:04:43.903Z,10.65
2019-04-14T12:07:12.528Z,10.30
2019-04-14T12:09:51.138Z,10.98
2019-04-14T12:12:17.609Z,10.25
2019-04-14T12:14:44.176Z,10.25
2019-04-14T12:17:10.763Z,12.30
2019-04-14T12:19:38.600Z,9.75
2019-04-14T12:22:08.636Z,9.88
2019-04-14T12:24:33.559Z,9.10
2019-04-14T12:27:00.163Z,10.00
2019-04-14T12:29:26.735Z,9.85
2019-04-14T12:31:55.225Z,9.40
2019-04-14T12:34:21.797Z,10.55
2019-04-14T12:36:48.293Z,10.60
2019-04-14T12:39:21.299Z,11.22
2019-04-14T12:41:55.471Z,9.28
2019-04-14T12:47:14.768Z,10.05
2019-04-14T12:49:52.014Z,10.30
2019-04-14T12:52:29.264Z,10.08
2019-04-14T12:55:03.847Z,10.58
2019-04-14T12:57:52.333Z,11.15
2019-04-14T13:00:31.480Z,10.63
2019-04-14T13:03:10.219Z,9.65
2019-04-14T13:05:49.095Z,10.18
2019-04-14T13:08:31.599Z,9.68
2019-04-14T13:11:06.770Z,8.70
2019-04-14T13:13:42.911Z,13.68
2019-04-14T13:18:36.809Z,9.38
2019-04-14T13:21:03.802Z,8.58
2019-04-14T13:23:30.332Z,9.45
2019-04-14T13:25:56.904Z,9.25
2019-04-14T13:28:23.360Z,10.00
2019-04-14T13:30:50.982Z,10.43
2019-04-14T13:33:17.710Z,10.13
2019-04-14T13:35:46.260Z,8.13
2019-04-14T13:38:12.747Z,9.20
2019-04-14T13:40:39.538Z,8.60
2019-04-14T13:43:06.329Z,9.73
2019-04-14T13:45:33.004Z,23.52
2019-04-14T13:47:59.665Z,16.07
2019-04-14T13:50:26.247Z,7.78
2019-04-14T13:52:52.886Z,7.00
2019-04-14T13:55:19.595Z,7.58
2019-04-14T13:57:46.521Z,7.50
2019-04-14T14:00:15.203Z,6.50
2019-04-14T14:02:42.188Z,6.95
2019-04-14T14:05:08.970Z,6.80
2019-04-14T14:07:35.549Z,7.55
2019-04-14T14:10:06.678Z,7.50
2019-04-14T14:12:53.394Z,7.95
2019-04-14T14:15:21.884Z,7.47
2019-04-14T14:18:02.110Z,7.10
2019-04-14T14:20:36.502Z,10.93
2019-04-14T14:23:04.939Z,8.65
2019-04-14T14:25:33.408Z,22.35
2019-04-14T14:28:00.008Z,5.90
2019-04-14T14:30:26.505Z,5.95
2019-04-14T14:32:52.986Z,6.10
2019-04-14T14:35:19.460Z,6.53
2019-04-14T14:37:46.129Z,7.60
2019-04-14T14:40:12.734Z,5.53
2019-04-14T14:42:39.340Z,7.40
2019-04-14T14:45:14.494Z,7.37
2019-04-14T14:47:42.887Z,5.25
2019-04-14T14:50:14.376Z,6.35
2019-04-14T14:52:41.185Z,13.72
2019-04-14T14:55:08.181Z,6.15
2019-04-14T14:57:34.662Z,5.47
2019-04-14T15:00:01.384Z,6.08
2019-04-14T15:02:27.934Z,5.00
2019-04-14T15:04:54.542Z,5.67
2019-04-14T15:07:21.059Z,4.87
2019-04-14T15:09:47.649Z,5.90
2019-04-14T15:12:14.384Z,4.80
2019-04-14T15:14:41.373Z,5.03
2019-04-14T15:17:08.442Z,5.30
2019-04-14T15:19:36.187Z,4.80
2019-04-14T15:22:03.516Z,6.22
2019-04-14T15:24:31.226Z,5.28
2019-04-14T15:26:57.937Z,4.87
2019-04-14T15:29:24.440Z,5.30
2019-04-14T15:31:51.059Z,5.95
2019-04-14T15:34:17.554Z,5.67
2019-04-14T15:36:44.198Z,5.90
2019-04-14T15:39:11.370Z,5.87
2019-04-14T15:41:37.969Z,6.72
2019-04-14T15:44:04.607Z,6.35
2019-04-14T15:46:31.218Z,6.00
2019-04-14T15:48:57.926Z,5.10
2019-04-14T15:51:24.500Z,5.28
2019-04-14T15:53:51.166Z,6.75
2019-04-14T15:56:22.531Z,5.00
2019-04-14T15:58:54.045Z,6.58
2019-04-14T16:01:25.504Z,5.08
2019-04-14T16:03:59.897Z,5.75
2019-04-14T16:06:28.312Z,5.22
2019-04-14T16:09:02.729Z,5.42
2019-04-14T16:11:33.015Z,4.70
2019-04-14T16:14:10.476Z,6.12
2019-04-14T16:16:39.784Z,176.12
2019-04-14T16:19:19.707Z,83.05
2019-04-14T16:21:46.197Z,5.40
2019-04-14T16:24:12.885Z,5.55
2019-04-14T16:26:47.270Z,5.42
2019-04-14T16:29:19.963Z,8.73
2019-04-14T16:32:08.691Z,5.95
2019-04-14T16:34:40.139Z,5.77
2019-04-14T16:37:06.757Z,5.25
2019-04-14T16:39:33.578Z,5.37
2019-04-14T16:42:00.210Z,5.75
2019-04-14T16:44:26.869Z,5.75
2019-04-14T16:46:53.698Z,6.47
2019-04-14T16:49:20.417Z,6.62
2019-04-14T16:51:51.712Z,6.33
2019-04-14T16:54:37.121Z,9.95
2019-04-14T16:57:11.383Z,6.20
2019-04-14T16:59:37.895Z,8.08
2019-04-14T17:02:10.819Z,7.40
2019-04-14T17:04:33.190Z,6.40
2019-04-14T17:07:07.829Z,7.03
2019-04-14T17:09:36.175Z,6.00
2019-04-14T17:12:02.901Z,6.50
2019-04-14T17:20:43.306Z,6.70
2019-04-14T17:23:20.916Z,6.85
2019-04-14T20:09:49.035Z,14.10
2019-04-14T20:12:16.434Z,12.43
2019-04-14T20:14:43.621Z,14.78
2019-04-14T20:17:28.234Z,12.75
2019-04-14T20:19:58.794Z,12.03
2019-04-14T20:22:36.361Z,13.25
2019-04-14T20:25:15.279Z,14.15
2019-04-14T20:27:46.220Z,13.62
2019-04-14T20:30:14.917Z,13.40
2019-04-14T20:32:50.167Z,11.88
